Flight Track Log - Related Links

Times and Time Zones

All times are in EDT time to prevent confusion due to time zone crossing. See the EJA396 flight status page for this flight to view local times or setup timezone preferences in your user account.

Time Position Orientation Groundspeed Altitude Reporting Facility
EDT Latitude Longitude Course Direction KTS MPH feet Rate Location/Type
Thu 01:45:49 PM 40.7667 -73.8333 72° East 166 191 2,400  Level New York TRACON
Thu 01:46:49 PM 40.7833 -73.7667 72° East 246 283 6,200 3,300 Climbing New York TRACON
Thu 01:47:49 PM 40.8500 -73.7667 360° North 293 337 9,000 1,400 Climbing New York TRACON
Thu 01:48:49 PM 40.9167 -73.8333 323° Northwest 309 356 9,000 600 Level New York TRACON
Thu 01:49:49 PM 40.9833 -73.9167 317° Northwest 309 356 10,200 2,100 Climbing New York TRACON
Thu 01:50:49 PM 41.0333 -74.0000 309° West 354 407 13,200 2,135 Climbing New York TRACON
Thu 01:52:32 PM 41.1800 -74.1425 324° Northwest 390 449 16,000 1,031 Climbing New York Center
Thu 01:53:32 PM 41.2592 -74.2211 323° Northwest 395 455 16,000  Level New York Center
Thu 01:54:30 PM 41.3564 -74.3117 325° Northwest 395 455 16,000 101 Level New York Center
Thu 01:55:31 PM 41.4303 -74.4097 315° West 395 455 16,200 893 Climbing New York Center
Thu 01:56:31 PM 41.4844 -74.5428 299° West 397 457 17,800 1,664 Climbing New York Center
Thu 01:57:30 PM 41.5428 -74.6706 301° West 411 473 19,500 2,017 Climbing New York Center
Thu 01:58:30 PM 41.5989 -74.7989 300° West 411 473 21,800 2,150 Climbing New York Center
Thu 01:59:30 PM 41.6433 -74.9014 300° West 411 473 23,800 2,410 Climbing New York Center
Thu 02:00:32 PM 41.7086 -75.0583 299° West 411 473 26,700 2,450 Climbing New York Center
Thu 02:01:30 PM 41.7642 -75.1897 300° West 411 473 28,700 1,765 Climbing New York Center
Thu 02:02:31 PM 41.8214 -75.3244 300° West 411 473 30,200 1,475 Climbing New York Center
Thu 02:03:32 PM 41.8806 -75.4675 299° West 419 482 31,700 1,525 Climbing New York Center
Thu 02:04:29 PM 41.9414 -75.6086 300° West 427 491 33,200 1,538 Climbing New York Center
Thu 02:06:08 PM 42.0375 -75.8492 298° West 419 482 35,700 1,434 Climbing Cleveland Center
Thu 02:07:08 PM 42.0933 -75.9878 299° West 425 489 37,000 1,260 Climbing Cleveland Center
Thu 02:07:48 PM 42.1167 -76.0667 292° West 390 449 37,800 1,050 Climbing Toronto Center
Thu 02:09:08 PM 42.2028 -76.2856 298° West 435 501 39,100 943 Climbing Cleveland Center
Thu 02:10:08 PM 42.2497 -76.4256 294° West 427 491 40,000 450 Climbing Cleveland Center
Thu 02:11:08 PM 42.2967 -76.5742 293° West 427 491 40,000  Level Cleveland Center
Thu 02:12:08 PM 42.3456 -76.7256 294° West 433 498 40,000  Level Cleveland Center
Thu 02:13:08 PM 42.3922 -76.8775 293° West 433 498 40,000  Level Cleveland Center
Thu 02:14:08 PM 42.4408 -77.0294 293° West 433 498 40,000  Level Cleveland Center
Thu 02:15:08 PM 42.4872 -77.1817 292° West 438 504 40,000  Level Cleveland Center
Thu 02:16:08 PM 42.5333 -77.3342 292° West 438 504 40,000  Level Cleveland Center
Thu 02:17:08 PM 42.5747 -77.4731 292° West 444 511 40,000  Level Cleveland Center
Thu 02:18:08 PM 42.6247 -77.6286 294° West 451 519 40,000  Level Cleveland Center
Thu 02:19:08 PM 42.6700 -77.7792 292° West 444 511 40,000  Level Cleveland Center
Thu 02:20:08 PM 42.7197 -77.9381 293° West 449 517 40,000  Level Cleveland Center
Thu 02:21:08 PM 42.7647 -78.0889 292° West 449 517 40,000  Level Cleveland Center
Thu 02:22:08 PM 42.8117 -78.2425 293° West 449 517 40,000  Level Cleveland Center
Thu 02:23:08 PM 42.8564 -78.3967 292° West 449 517 40,000  Level Cleveland Center
Thu 02:24:08 PM 42.9008 -78.5511 291° West 449 517 40,000  Level Cleveland Center
Thu 02:25:08 PM 42.9431 -78.7056 291° West 449 517 40,000  Level Cleveland Center
Thu 02:26:08 PM 42.9789 -78.8664 287° West 444 511 40,000  Level Cleveland Center
Thu 02:26:48 PM 43.0000 -78.9667 286° West 440 506 40,000  Level Toronto Center
Thu 02:27:48 PM 43.0333 -79.1333 285° West 440 506 40,000  Level Toronto Center
Thu 02:28:48 PM 43.0667 -79.2833 287° West 440 506 40,000  Level Toronto Center
Thu 02:29:48 PM 43.1000 -79.4500 285° West 440 506 40,000  Level Toronto Center
Thu 02:30:48 PM 43.1333 -79.6167 285° West 440 506 40,000  Level Toronto Center
Thu 02:31:48 PM 43.1667 -79.7667 287° West 440 506 40,000  Level Toronto Center
Thu 02:32:48 PM 43.2000 -79.9333 285° West 430 495 40,000  Level Toronto Center
Thu 02:33:48 PM 43.2167 -80.0667 280° West 430 495 40,000  Level Toronto Center
Thu 02:34:48 PM 43.2500 -80.2500 284° West 430 495 40,000  Level Toronto Center
Thu 02:35:48 PM 43.2833 -80.3833 289° West 430 495 40,000  Level Toronto Center
Thu 02:36:48 PM 43.3167 -80.5500 285° West 430 495 40,000  Level Toronto Center
Thu 02:37:48 PM 43.3500 -80.7333 284° West 430 495 40,000  Level Toronto Center
Thu 02:38:48 PM 43.3667 -80.8667 280° West 430 495 40,000  Level Toronto Center
Thu 02:39:48 PM 43.4000 -81.0333 285° West 430 495 40,000  Level Toronto Center
Thu 02:40:48 PM 43.4333 -81.2000 285° West 430 495 40,000  Level Toronto Center
Thu 02:41:48 PM 43.4667 -81.3500 287° West 430 495 40,000  Level Toronto Center
Thu 02:42:48 PM 43.5000 -81.5167 285° West 430 495 40,000  Level Toronto Center
Thu 02:43:48 PM 43.5333 -81.6500 289° West 420 483 40,000  Level Toronto Center
Thu 02:44:48 PM 43.5667 -81.8167 285° West 420 483 40,000  Level Toronto Center
Thu 02:45:48 PM 43.5833 -81.9833 278° West 420 483 40,000  Level Toronto Center
Thu 02:46:48 PM 43.6167 -82.1167 289° West 420 483 40,000  Level Toronto Center
Thu 02:47:48 PM 43.6500 -82.2833 286° West 410 472 40,000  Level Toronto Center
Thu 02:48:48 PM 43.6667 -82.4500 278° West 420 483 40,000  Level Toronto Center
Thu 02:49:48 PM 43.7000 -82.6000 287° West 420 483 40,000  Level Toronto Center
Thu 02:50:44 PM 43.7361 -82.7414 290° West 416 479 40,000  Level Minneapolis Center
Thu 02:51:46 PM 43.7631 -82.8964 284° West 417 480 40,000  Level Minneapolis Center
Thu 02:52:48 PM 43.7900 -83.0514 284° West 416 479 40,000  Level Minneapolis Center
Thu 02:53:50 PM 43.8172 -83.2056 284° West 415 478 40,000  Level Minneapolis Center
Thu 02:54:52 PM 43.8475 -83.3900 283° West 413 475 40,000  Level Minneapolis Center
Thu 02:55:54 PM 43.8733 -83.5422 283° West 411 473 40,000  Level Minneapolis Center
Thu 02:56:56 PM 43.9003 -83.6981 284° West 413 475 40,000  Level Minneapolis Center
Thu 02:57:58 PM 43.9236 -83.8514 282° West 413 475 40,000  Level Minneapolis Center
Thu 02:59:00 PM 43.9494 -84.0056 283° West 411 473 40,000  Level Minneapolis Center
Thu 03:00:02 PM 43.9811 -84.1925 283° West 414 476 40,000  Level Minneapolis Center
Thu 03:01:06 PM 44.0053 -84.3489 282° West 415 478 40,000  Level Minneapolis Center
Thu 03:02:08 PM 44.0289 -84.5031 282° West 412 474 40,000  Level Minneapolis Center
Thu 03:03:10 PM 44.0547 -84.6578 283° West 412 474 40,000  Level Minneapolis Center
Thu 03:04:12 PM 44.0781 -84.8122 282° West 410 472 40,000  Level Minneapolis Center
Thu 03:05:14 PM 44.1064 -85.0000 282° West 413 475 40,000  Level Minneapolis Center
Thu 03:06:16 PM 44.1294 -85.1542 282° West 410 472 40,000  Level Minneapolis Center
Thu 03:07:18 PM 44.1536 -85.3092 282° West 410 472 40,000  Level Minneapolis Center
Thu 03:08:20 PM 44.1761 -85.4653 281° West 411 473 40,000  Level Minneapolis Center
Thu 03:09:22 PM 44.1997 -85.6200 282° West 410 472 40,000  Level Minneapolis Center
Thu 03:10:24 PM 44.2222 -85.7758 281° West 411 473 40,000  Level Minneapolis Center
Thu 03:11:26 PM 44.2444 -85.9300 281° West 407 468 40,000  Level Minneapolis Center
Thu 03:12:28 PM 44.2708 -86.1164 281° West 406 467 40,000  Level Minneapolis Center
Thu 03:13:31 PM 44.2928 -86.2717 281° West 408 470 40,000  Level Minneapolis Center
Thu 03:14:33 PM 44.3144 -86.4258 281° West 404 465 40,000  Level Minneapolis Center
Thu 03:15:35 PM 44.3356 -86.5803 281° West 404 465 40,000  Level Minneapolis Center
Thu 03:16:37 PM 44.3572 -86.7336 281° West 402 463 40,000  Level Minneapolis Center
Thu 03:17:39 PM 44.3772 -86.8889 280° West 404 465 40,000  Level Minneapolis Center
Thu 03:18:41 PM 44.3986 -87.0436 281° West 404 465 40,000  Level Minneapolis Center
Thu 03:19:43 PM 44.4228 -87.2275 280° West 408 470 40,000  Level Minneapolis Center
Thu 03:20:45 PM 44.4436 -87.3825 281° West 407 468 40,000  Level Minneapolis Center
Thu 03:21:47 PM 44.4633 -87.5414 280° West 405 466 40,000 -242 Level Minneapolis Center
Thu 03:22:49 PM 44.4833 -87.6953 280° West 404 465 39,500 -726 Descending Minneapolis Center
Thu 03:23:51 PM 44.5025 -87.8447 280° West 392 451 38,500 -1,016 Descending Minneapolis Center
Thu 03:24:53 PM 44.5217 -88.0064 279° West 375 432 37,400 -1,008 Descending Minneapolis Center
Thu 03:25:56 PM 44.5394 -88.1442 280° West 366 421 36,400 -672 Descending Minneapolis Center
Thu 03:26:58 PM 44.5550 -88.2778 279° West 353 406 36,000 -194 Descending Minneapolis Center
Thu 03:28:00 PM 44.5725 -88.4178 280° West 361 415 36,000  Level Minneapolis Center
Thu 03:29:02 PM 44.5919 -88.5839 279° West 370 426 36,000  Level Minneapolis Center
Thu 03:30:04 PM 44.6086 -88.7253 279° West 369 425 36,000  Level Minneapolis Center
Thu 03:31:06 PM 44.6247 -88.8644 279° West 365 420 36,000  Level Minneapolis Center
Thu 03:32:08 PM 44.6414 -89.0047 280° West 365 420 36,000 -339 Level Minneapolis Center
Thu 03:33:10 PM 44.6592 -89.1669 279° West 361 415 35,300 -823 Descending Minneapolis Center
Thu 03:34:12 PM 44.6758 -89.3031 280° West 357 411 34,300 -968 Descending Minneapolis Center
Thu 03:35:14 PM 44.6894 -89.4444 278° West 361 415 33,300 -960 Descending Minneapolis Center
Thu 03:36:17 PM 44.7061 -89.5847 280° West 364 419 32,300 -624 Descending Minneapolis Center
Thu 03:37:19 PM 44.7219 -89.7300 279° West 372 428 32,000 -145 Descending Minneapolis Center
Thu 03:38:21 PM 44.7400 -89.8950 279° West 369 425 32,000  Level Minneapolis Center
Thu 03:39:23 PM 44.7550 -90.0353 279° West 365 420 32,000  Level Minneapolis Center
Thu 03:40:25 PM 44.7700 -90.1742 279° West 361 415 32,000  Level Minneapolis Center
Thu 03:41:27 PM 44.7783 -90.3128 275° West 358 412 32,000 -242 Level Minneapolis Center
Thu 03:42:29 PM 44.7869 -90.4542 275° West 360 414 31,500 -871 Descending Minneapolis Center
Thu 03:43:31 PM 44.7969 -90.6169 275° West 380 437 30,200 -1,355 Descending Minneapolis Center
Thu 03:44:33 PM 44.8056 -90.7717 275° West 396 456 28,700 -1,645 Descending Minneapolis Center
Thu 03:45:35 PM 44.8144 -90.9264 275° West 398 458 26,800 -1,776 Descending Minneapolis Center
Thu 03:46:38 PM 44.8225 -91.0817 274° West 399 459 25,000 -1,968 Descending Minneapolis Center
Thu 03:47:40 PM 44.8328 -91.2628 275° West 391 450 22,700 -1,887 Descending Minneapolis Center
Thu 03:48:42 PM 44.8408 -91.4067 275° West 378 435 21,100 -1,645 Descending Minneapolis Center
Thu 03:49:44 PM 44.8481 -91.5478 274° West 366 421 19,300 -1,694 Descending Minneapolis Center
Thu 03:50:46 PM 44.8550 -91.6867 274° West 360 414 17,600 -1,588 Descending Minneapolis Center
Thu 03:52:00 PM 44.8625 -91.8489 274° West 349 402 15,700 -1,533 Descending Minneapolis Center
Thu 03:53:03 PM 44.8686 -91.9761 274° West 329 379 14,100 -1,632 Descending Minneapolis Center
Thu 03:54:05 PM 44.8753 -92.1272 274° West 322 371 12,300 -1,645 Descending Minneapolis Center
Thu 03:55:07 PM 44.8803 -92.2500 273° West 315 362 10,700 -1,113 Descending Minneapolis Center
Thu 03:56:09 PM 44.8528 -92.3592 250° West 321 369 10,000 -677 Descending Minneapolis Center
Thu 03:57:11 PM 44.8183 -92.4589 244° Southwest 277 319 9,300 -919 Descending Minneapolis Center
Thu 03:58:13 PM 44.8186 -92.5597 270° West 260 299 8,100 -1,403 Descending Minneapolis Center
Thu 03:59:15 PM 44.8186 -92.6814 270° West 261 300 6,400 -1,619 Descending Minneapolis Center
Thu 04:00:19 PM 44.8178 -92.7833 269° West 261 300 4,700 -1,143 Descending Minneapolis Center
Thu 04:01:21 PM 44.8172 -92.8733 270° West 234 269 4,000 -339 Descending Minneapolis Center
Thu 04:02:23 PM 44.8164 -92.9658 269° West 237 273 4,000 -384 Level Minneapolis Center
Thu 04:03:26 PM 44.8153 -93.0519 269° West 223 257 3,200 -864 Descending Minneapolis Center
Thu 04:04:28 PM 44.8381 -93.1200 295° West 161 185 2,200 -823 Descending Minneapolis Center
Thu 04:05:30 PM 44.8564 -93.1617 302° West 129 148 1,500 -677 Descending Minneapolis Center
Thu 04:07:00 PM 44.8667 -93.2167 270° West  Level FlightAware Approximate
Thu 04:14:00 PM 44.8820 -93.2218 270° West  Level Estimated

Login

Don't have an account? Register now (free) for customized features, flight alerts, and more!